Time;durP1;ratioP1;P1;durP2;ratioP2;P2;SDS_P1;SDS_P2;PMS_P1;PMS_P2;Temp;Humidity;BMP_temperature;BMP_pressure;BME280_temperature;BME280_humidity;BME280_pressure;Samples;Min_cycle;Max_cycle;Signal;HPM_P1;HPM_P2
2023/03/03 00:00:17;;;;;;;;;;;;;;;3.16;60.25;98128.28;5073160;28;19924;-53
2023/03/03 00:02:44;;;;;;;;;;;;;;;3.09;60.25;98131.19;5078342;28;20373;-53
2023/03/03 00:05:17;;;;;;;;;;;;;;;3.06;60.43;98129.03;5082090;28;19940;-53
2023/03/03 00:07:45;;;;;;;;;;;;;;;3.08;60.16;98124.19;5086012;28;20304;-53
2023/03/03 00:10:13;;;;;;;;;;;;;;;3.12;60.03;98132.56;5090527;28;19969;-53
2023/03/03 00:12:45;;;;;;;;;;;;;;;3.07;59.79;98137.88;5084773;28;19931;-53
2023/03/03 00:15:14;;;;;;;;;;;;;;;2.96;60.10;98123.56;5073984;28;19928;-54
2023/03/03 00:17:42;;;;;;;;;;;;;;;2.93;60.63;98124.09;5079746;28;19928;-54
2023/03/03 00:20:26;;;;;;;;;;;;;;;2.92;60.33;98119.78;5079179;28;19924;-53
2023/03/03 00:22:53;;;;;;;;;;;;;;;2.78;60.77;98127.47;5085557;28;19924;-54
2023/03/03 00:25:25;;;;;;;;;;;;;;;2.84;60.17;98125.63;5086953;28;19924;-53
2023/03/03 00:27:54;;;;;;;;;;;;;;;2.96;59.59;98126.25;5066207;28;19928;-55
2023/03/03 00:30:23;;;;;;;;;;;;;;;2.98;59.79;98136.72;5064488;28;20305;-53
2023/03/03 00:32:52;;;;;;;;;;;;;;;2.84;59.94;98129.13;5072445;28;20304;-53
2023/03/03 00:35:23;;;;;;;;;;;;;;;2.88;59.73;98129.44;5074993;28;19924;-53
2023/03/03 00:37:53;;;;;;;;;;;;;;;2.92;59.24;98127.81;5087062;28;20592;-53
2023/03/03 00:40:22;;;;;;;;;;;;;;;2.87;59.67;98130.47;5077553;28;19924;-52
2023/03/03 00:42:51;;;;;;;;;;;;;;;2.78;59.92;98123.97;5090301;28;19932;-53
2023/03/03 00:45:24;;;;;;;;;;;;;;;2.75;59.91;98137.88;5091522;28;19925;-52
2023/03/03 00:47:52;;;;;;;;;;;;;;;2.70;59.68;98133.28;5089668;28;19928;-54
2023/03/03 00:50:41;;;;;;;;;;;;;;;2.66;59.75;98144.78;5075709;28;19928;-52
2023/03/03 00:53:11;;;;;;;;;;;;;;;2.79;59.64;98136.31;5074980;28;19924;-52
2023/03/03 00:55:39;;;;;;;;;;;;;;;2.77;59.40;98136.59;5072173;28;20339;-52
2023/03/03 00:58:07;;;;;;;;;;;;;;;2.75;59.90;98140.56;5075868;28;20297;-52
2023/03/03 01:00:42;;;;;;;;;;;;;;;2.70;60.00;98140.53;5071496;28;19939;-53
2023/03/03 01:03:14;;;;;;;;;;;;;;;2.66;59.78;98152.81;5090598;28;19924;-53
2023/03/03 01:05:42;;;;;;;;;;;;;;;2.77;59.68;98141.13;5090394;28;19932;-55
2023/03/03 01:08:11;;;;;;;;;;;;;;;2.60;60.27;98150.09;5087334;28;20297;-52
2023/03/03 01:10:41;;;;;;;;;;;;;;;2.38;60.71;98140.47;5082305;28;19931;-53
2023/03/03 01:13:09;;;;;;;;;;;;;;;2.36;60.77;98143.41;5083809;28;19977;-52
2023/03/03 01:15:38;;;;;;;;;;;;;;;2.17;60.87;98142.13;5081729;28;19924;-52
2023/03/03 01:18:07;;;;;;;;;;;;;;;2.06;61.34;98143.88;5073827;28;19935;-52
2023/03/03 01:20:35;;;;;;;;;;;;;;;2.10;61.16;98147.69;5076319;28;19932;-52
2023/03/03 01:23:03;;;;;;;;;;;;;;;2.29;60.79;98142.78;5088056;28;19931;-54
2023/03/03 01:25:30;;;;;;;;;;;;;;;2.21;61.08;98137.88;5084048;28;19925;-53
2023/03/03 01:27:58;;;;;;;;;;;;;;;1.97;61.84;98148.06;5077033;28;19939;-53
2023/03/03 01:30:27;;;;;;;;;;;;;;;2.01;61.45;98141.13;5070861;28;19923;-52
2023/03/03 01:32:55;;;;;;;;;;;;;;;2.10;61.46;98145.81;5078501;28;19925;-53
2023/03/03 01:35:24;;;;;;;;;;;;;;;2.08;61.26;98139.91;5072736;28;20276;-52
2023/03/03 01:37:51;;;;;;;;;;;;;;;2.15;61.35;98139.72;5074280;28;19952;-53
2023/03/03 01:40:21;;;;;;;;;;;;;;;2.15;60.78;98138.91;5083153;28;19925;-52
2023/03/03 01:42:49;;;;;;;;;;;;;;;2.01;61.14;98133.91;5075510;28;19924;-52
2023/03/03 01:45:19;;;;;;;;;;;;;;;2.06;61.21;98125.94;5074847;28;19932;-52
2023/03/03 01:47:47;;;;;;;;;;;;;;;2.08;61.00;98118.47;5092768;28;19928;-54
2023/03/03 01:50:15;;;;;;;;;;;;;;;2.13;60.44;98130.28;5077136;28;20340;-57
2023/03/03 01:52:45;;;;;;;;;;;;;;;1.95;60.85;98123.38;5082812;28;20527;-54
2023/03/03 01:55:14;;;;;;;;;;;;;;;1.99;60.70;98127.19;5076095;28;19924;-53
2023/03/03 01:57:42;;;;;;;;;;;;;;;2.00;60.89;98121.59;5083751;28;19947;-52
2023/03/03 02:00:10;;;;;;;;;;;;;;;1.92;60.79;98122.03;5070975;28;19928;-52
2023/03/03 02:02:41;;;;;;;;;;;;;;;1.73;61.09;98126.06;5070950;28;19932;-53
2023/03/03 02:05:09;;;;;;;;;;;;;;;1.71;61.12;98123.66;5083476;28;19931;-52
2023/03/03 02:07:37;;;;;;;;;;;;;;;1.84;60.88;98120.59;5085991;28;20424;-53
2023/03/03 02:10:07;;;;;;;;;;;;;;;1.89;60.57;98122.53;5089655;28;19967;-52
2023/03/03 02:12:36;;;;;;;;;;;;;;;1.93;60.21;98117.47;5080878;28;19928;-52
2023/03/03 02:15:11;;;;;;;;;;;;;;;1.86;60.85;98119.53;5076905;28;19925;-57
2023/03/03 02:17:39;;;;;;;;;;;;;;;1.82;60.68;98120.03;5081248;28;19928;-52
2023/03/03 02:20:10;;;;;;;;;;;;;;;1.82;60.70;98128.06;5070957;28;19973;-53
2023/03/03 02:22:43;;;;;;;;;;;;;;;1.85;60.63;98126.75;5069211;28;19929;-52
2023/03/03 02:25:13;;;;;;;;;;;;;;;1.77;61.29;98128.00;5083509;28;20292;-53
2023/03/03 02:27:45;;;;;;;;;;;;;;;1.65;61.21;98116.63;5072353;28;19929;-57
2023/03/03 02:30:14;;;;;;;;;;;;;;;1.55;61.37;98119.97;5088630;28;19925;-52
2023/03/03 02:32:42;;;;;;;;;;;;;;;1.60;61.42;98126.44;5080175;28;20003;-52
2023/03/03 02:35:25;;;;;;;;;;;;;;;1.54;61.64;98134.38;5069033;28;20416;-52
2023/03/03 02:37:53;;;;;;;;;;;;;;;1.63;61.17;98125.94;5069448;28;19935;-53
2023/03/03 02:40:21;;;;;;;;;;;;;;;1.68;61.16;98134.84;5098459;28;19924;-52
2023/03/03 02:42:50;;;;;;;;;;;;;;;1.46;61.77;98126.00;5075504;28;19931;-52
2023/03/03 02:45:18;;;;;;;;;;;;;;;1.67;61.28;98111.81;5069613;28;19932;-53
2023/03/03 02:47:48;;;;;;;;;;;;;;;1.77;60.89;98121.84;5083916;28;19932;-53
2023/03/03 02:50:18;;;;;;;;;;;;;;;1.76;60.91;98126.41;5077496;28;19979;-53
2023/03/03 02:52:45;;;;;;;;;;;;;;;1.71;61.35;98129.00;5083983;28;19924;-53
2023/03/03 02:55:13;;;;;;;;;;;;;;;1.52;62.05;98125.81;5084392;28;19925;-53
2023/03/03 02:57:41;;;;;;;;;;;;;;;1.67;61.40;98121.72;5085086;28;19991;-53
2023/03/03 03:00:11;;;;;;;;;;;;;;;1.77;61.14;98125.34;5073807;28;19924;-53
2023/03/03 03:02:39;;;;;;;;;;;;;;;1.61;61.63;98130.75;5080313;28;20293;-52
2023/03/03 03:05:11;;;;;;;;;;;;;;;1.42;61.63;98124.84;5077132;28;19924;-52
2023/03/03 03:07:39;;;;;;;;;;;;;;;1.37;62.01;98133.63;5084804;28;20023;-52
2023/03/03 03:10:08;;;;;;;;;;;;;;;1.43;61.68;98126.47;5076744;28;19935;-53
2023/03/03 03:12:38;;;;;;;;;;;;;;;1.44;61.54;98123.56;5074108;28;20340;-52
2023/03/03 03:15:09;;;;;;;;;;;;;;;1.44;61.47;98128.91;5084290;28;19928;-55
2023/03/03 03:17:38;;;;;;;;;;;;;;;1.33;61.58;98126.31;5087665;28;19924;-53
2023/03/03 03:20:07;;;;;;;;;;;;;;;1.29;62.05;98131.38;5082989;28;19924;-52
2023/03/03 03:22:34;;;;;;;;;;;;;;;1.31;61.86;98126.56;5086299;28;19932;-52
2023/03/03 03:25:03;;;;;;;;;;;;;;;1.29;61.96;98131.38;5089665;28;19978;-52
2023/03/03 03:27:33;;;;;;;;;;;;;;;1.37;61.61;98130.13;5072119;28;20015;-52
2023/03/03 03:30:01;;;;;;;;;;;;;;;1.34;61.43;98134.13;5086234;28;19931;-53
2023/03/03 03:32:30;;;;;;;;;;;;;;;1.31;61.47;98140.78;5081874;28;19924;-52
2023/03/03 03:34:59;;;;;;;;;;;;;;;1.23;61.92;98137.72;5087063;28;20357;-52
2023/03/03 03:37:27;;;;;;;;;;;;;;;1.30;61.63;98139.16;5079772;28;20388;-52
2023/03/03 03:39:55;;;;;;;;;;;;;;;1.21;61.71;98143.28;5090932;28;20576;-53
2023/03/03 03:42:24;;;;;;;;;;;;;;;1.15;61.74;98140.78;5086074;28;19924;-52
2023/03/03 03:44:52;;;;;;;;;;;;;;;1.25;61.34;98135.59;5085891;28;19929;-53
2023/03/03 03:47:20;;;;;;;;;;;;;;;1.14;61.35;98137.31;5072536;28;19969;-52
2023/03/03 03:49:50;;;;;;;;;;;;;;;1.14;61.59;98139.19;5082519;28;19977;-53
2023/03/03 03:52:21;;;;;;;;;;;;;;;1.05;61.92;98141.44;5077910;28;20305;-52
2023/03/03 03:54:49;;;;;;;;;;;;;;;1.11;61.66;98139.66;5086538;28;19924;-52
2023/03/03 03:57:17;;;;;;;;;;;;;;;1.08;61.73;98145.50;5081719;28;19923;-52
2023/03/03 03:59:45;;;;;;;;;;;;;;;1.06;61.81;98140.38;5086274;28;19925;-52
2023/03/03 04:02:13;;;;;;;;;;;;;;;1.03;61.51;98146.25;5074864;28;19924;-53
2023/03/03 04:04:41;;;;;;;;;;;;;;;1.00;61.77;98144.03;5084452;28;20397;-53
2023/03/03 04:07:12;;;;;;;;;;;;;;;0.95;61.80;98142.09;5084196;28;19931;-52
2023/03/03 04:09:42;;;;;;;;;;;;;;;0.94;61.60;98145.81;5081542;28;19924;-52
2023/03/03 04:12:11;;;;;;;;;;;;;;;0.87;62.08;98139.03;5074402;28;19982;-52
2023/03/03 04:14:42;;;;;;;;;;;;;;;0.73;62.40;98133.19;5084395;28;20273;-52
2023/03/03 04:17:10;;;;;;;;;;;;;;;0.89;62.25;98137.72;5071737;28;19956;-52
2023/03/03 04:19:38;;;;;;;;;;;;;;;0.96;62.37;98138.38;5074350;28;20232;-53
2023/03/03 04:22:06;;;;;;;;;;;;;;;1.03;62.00;98143.56;5090216;28;20374;-52
2023/03/03 04:24:34;;;;;;;;;;;;;;;0.93;62.13;98149.56;5090899;28;19969;-53
2023/03/03 04:27:05;;;;;;;;;;;;;;;0.98;62.08;98143.47;5085635;28;19924;-53
2023/03/03 04:29:33;;;;;;;;;;;;;;;0.94;62.28;98145.00;5074488;28;19928;-52
2023/03/03 04:32:01;;;;;;;;;;;;;;;0.95;61.94;98147.44;5077352;28;19930;-52
2023/03/03 04:34:29;;;;;;;;;;;;;;;0.85;62.12;98152.63;5072795;28;19981;-52
2023/03/03 04:36:57;;;;;;;;;;;;;;;0.75;62.32;98150.63;5087248;28;20378;-52
2023/03/03 04:39:26;;;;;;;;;;;;;;;0.72;62.95;98147.59;5101701;28;19978;-53
2023/03/03 04:41:54;;;;;;;;;;;;;;;0.72;62.69;98148.41;5102908;28;19924;-55
2023/03/03 04:44:23;;;;;;;;;;;;;;;0.69;63.25;98150.75;5085685;28;19931;-52
2023/03/03 04:46:51;;;;;;;;;;;;;;;0.76;62.61;98148.75;5100972;28;19928;-53
2023/03/03 04:49:19;;;;;;;;;;;;;;;0.75;62.70;98147.13;5094745;28;19935;-54
2023/03/03 04:51:47;;;;;;;;;;;;;;;0.72;62.84;98151.09;5104164;28;19924;-52
2023/03/03 04:54:16;;;;;;;;;;;;;;;0.69;62.96;98148.91;5087227;28;19931;-56
2023/03/03 04:56:44;;;;;;;;;;;;;;;0.66;62.99;98149.38;5086346;28;20407;-52
2023/03/03 04:59:12;;;;;;;;;;;;;;;0.68;62.91;98157.16;5089003;28;19947;-53
2023/03/03 05:01:41;;;;;;;;;;;;;;;0.63;63.10;98151.72;5090631;28;19924;-52
2023/03/03 05:04:10;;;;;;;;;;;;;;;0.66;63.06;98164.63;5089045;28;20395;-52
2023/03/03 05:06:39;;;;;;;;;;;;;;;0.61;63.33;98164.53;5102143;28;19924;-53
2023/03/03 05:09:08;;;;;;;;;;;;;;;0.57;63.34;98166.06;5093075;28;19969;-52
2023/03/03 05:11:36;;;;;;;;;;;;;;;0.52;63.49;98158.75;5101446;28;19924;-53
2023/03/03 05:14:04;;;;;;;;;;;;;;;0.52;63.23;98162.22;5108197;28;19932;-52
2023/03/03 05:16:31;;;;;;;;;;;;;;;0.54;63.00;98162.00;5100816;28;19973;-57
2023/03/03 05:19:00;;;;;;;;;;;;;;;0.68;62.87;98162.50;5095649;28;19928;-53
2023/03/03 05:21:28;;;;;;;;;;;;;;;0.80;62.76;98165.94;5100995;28;19924;-53
2023/03/03 05:23:56;;;;;;;;;;;;;;;0.80;62.52;98171.28;5109374;28;20305;-53
2023/03/03 05:26:24;;;;;;;;;;;;;;;0.73;62.84;98168.75;5106261;28;19959;-53
2023/03/03 05:28:52;;;;;;;;;;;;;;;0.65;63.17;98173.69;5079895;28;20300;-53
2023/03/03 05:31:19;;;;;;;;;;;;;;;0.43;63.57;98169.03;5093440;28;19986;-53
2023/03/03 05:33:47;;;;;;;;;;;;;;;0.51;63.75;98173.97;5111198;28;19930;-52
2023/03/03 05:36:16;;;;;;;;;;;;;;;0.35;64.39;98171.28;5101948;28;19931;-52
2023/03/03 05:38:44;;;;;;;;;;;;;;;0.50;63.79;98171.56;5083154;28;19929;-52
2023/03/03 05:41:12;;;;;;;;;;;;;;;0.52;63.65;98172.91;5083336;28;19924;-54
2023/03/03 05:43:40;;;;;;;;;;;;;;;0.42;63.83;98185.28;5082576;28;19939;-53
2023/03/03 05:46:10;;;;;;;;;;;;;;;0.38;63.92;98179.63;5072485;28;20404;-52
2023/03/03 05:48:40;;;;;;;;;;;;;;;0.37;63.82;98177.19;5084819;28;20580;-53
2023/03/03 05:51:08;;;;;;;;;;;;;;;0.37;63.96;98180.66;5083045;28;20021;-53
2023/03/03 05:53:37;;;;;;;;;;;;;;;0.26;64.40;98193.00;5080965;28;20336;-53
2023/03/03 05:56:05;;;;;;;;;;;;;;;0.20;64.59;98183.28;5091246;28;19924;-52
2023/03/03 05:58:33;;;;;;;;;;;;;;;0.33;64.20;98187.56;5083081;28;19935;-52
2023/03/03 06:01:01;;;;;;;;;;;;;;;0.36;64.15;98191.59;5071357;28;19924;-52
2023/03/03 06:03:28;;;;;;;;;;;;;;;0.42;63.76;98191.44;5082125;28;20012;-53
2023/03/03 06:05:56;;;;;;;;;;;;;;;0.36;64.36;98202.28;5088280;28;19924;-52
2023/03/03 06:08:24;;;;;;;;;;;;;;;0.31;64.54;98205.66;5088539;28;20607;-53
2023/03/03 06:10:53;;;;;;;;;;;;;;;0.28;64.79;98206.16;5085703;28;19940;-52
2023/03/03 06:13:22;;;;;;;;;;;;;;;0.25;64.53;98203.94;5087705;28;19932;-52
2023/03/03 06:15:50;;;;;;;;;;;;;;;0.19;64.89;98210.25;5076060;28;19928;-52
2023/03/03 06:18:20;;;;;;;;;;;;;;;0.29;64.52;98205.09;5079306;28;19935;-53
2023/03/03 06:20:51;;;;;;;;;;;;;;;0.49;63.91;98210.03;5080499;28;19931;-52
2023/03/03 06:23:19;;;;;;;;;;;;;;;0.44;63.86;98205.41;5093701;28;19924;-52
2023/03/03 06:25:49;;;;;;;;;;;;;;;0.42;64.35;98209.34;5085068;28;19977;-53
2023/03/03 06:28:18;;;;;;;;;;;;;;;0.62;63.50;98216.94;5090052;28;20015;-53
2023/03/03 06:30:46;;;;;;;;;;;;;;;0.55;63.70;98229.66;5074598;28;19925;-52
2023/03/03 06:33:14;;;;;;;;;;;;;;;0.69;63.65;98230.97;5089635;28;19929;-53
2023/03/03 06:35:41;;;;;;;;;;;;;;;0.67;63.94;98233.88;5086206;28;19944;-53
2023/03/03 06:38:09;;;;;;;;;;;;;;;0.65;63.72;98240.53;5092225;28;19931;-52
2023/03/03 06:40:37;;;;;;;;;;;;;;;0.66;63.97;98239.47;5104997;28;19931;-54
2023/03/03 06:43:05;;;;;;;;;;;;;;;0.84;63.46;98247.28;5109966;28;20335;-53
2023/03/03 06:45:34;;;;;;;;;;;;;;;0.85;63.40;98253.44;5103071;28;19927;-53
2023/03/03 06:48:02;;;;;;;;;;;;;;;0.98;63.37;98248.63;5103796;28;19931;-52
2023/03/03 06:50:29;;;;;;;;;;;;;;;1.13;62.86;98249.94;5102304;28;19931;-54
2023/03/03 06:52:59;;;;;;;;;;;;;;;1.12;62.97;98249.16;5109362;28;20039;-52
2023/03/03 06:55:27;;;;;;;;;;;;;;;1.25;62.73;98250.69;5110621;28;19924;-53
2023/03/03 06:57:55;;;;;;;;;;;;;;;1.23;62.56;98250.13;5105114;28;19992;-53
2023/03/03 07:00:23;;;;;;;;;;;;;;;1.17;62.50;98251.06;5105547;28;20978;-52
2023/03/03 07:02:56;;;;;;;;;;;;;;;1.31;62.39;98236.31;5102214;28;20226;-53
2023/03/03 07:05:24;;;;;;;;;;;;;;;1.41;62.10;98249.88;5101700;28;19924;-52
2023/03/03 07:07:53;;;;;;;;;;;;;;;1.50;61.53;98242.25;5097927;28;20428;-53
2023/03/03 07:10:22;;;;;;;;;;;;;;;1.50;62.07;98248.41;5102149;28;19928;-52
2023/03/03 07:12:50;;;;;;;;;;;;;;;1.53;62.04;98255.94;5101445;28;19980;-53
2023/03/03 07:15:20;;;;;;;;;;;;;;;1.44;62.19;98262.78;5093008;28;20408;-59
2023/03/03 07:17:48;;;;;;;;;;;;;;;1.45;62.48;98272.44;5101572;28;19931;-57
2023/03/03 07:20:20;;;;;;;;;;;;;;;1.61;62.25;98276.16;5102487;28;19943;-52
2023/03/03 07:22:48;;;;;;;;;;;;;;;1.50;62.14;98271.72;5101204;28;20287;-53
2023/03/03 07:25:19;;;;;;;;;;;;;;;1.48;62.66;98273.78;5100613;28;19924;-59
2023/03/03 07:27:47;;;;;;;;;;;;;;;1.36;62.69;98273.88;5093553;28;19932;-56
2023/03/03 07:30:22;;;;;;;;;;;;;;;1.37;62.98;98275.50;5096170;28;19928;-52
2023/03/03 07:32:50;;;;;;;;;;;;;;;1.45;62.69;98283.16;5089238;28;19923;-53
2023/03/03 07:35:28;;;;;;;;;;;;;;;1.34;62.74;98289.38;5100520;28;19924;-52
2023/03/03 07:37:56;;;;;;;;;;;;;;;1.37;63.17;98291.56;5099574;28;19930;-52
2023/03/03 07:40:30;;;;;;;;;;;;;;;1.30;63.25;98288.25;5103634;28;19924;-52
2023/03/03 07:42:58;;;;;;;;;;;;;;;1.08;64.11;98295.34;5107172;28;19931;-52
2023/03/03 07:45:36;;;;;;;;;;;;;;;1.21;64.00;98295.03;5090098;28;20268;-53
2023/03/03 07:48:08;;;;;;;;;;;;;;;1.19;64.00;98302.50;5102383;28;21102;-52
2023/03/03 07:50:37;;;;;;;;;;;;;;;1.20;64.02;98301.44;5103256;28;19946;-53
2023/03/03 07:53:08;;;;;;;;;;;;;;;1.32;63.71;98310.22;5089039;28;19924;-53
2023/03/03 07:55:37;;;;;;;;;;;;;;;1.49;63.30;98308.38;5085522;28;19927;-52
2023/03/03 07:58:16;;;;;;;;;;;;;;;1.59;62.92;98299.69;5083108;28;19928;-54
2023/03/03 08:01:12;;;;;;;;;;;;;;;1.88;62.06;98313.00;5096164;28;20436;-52
2023/03/03 08:03:41;;;;;;;;;;;;;;;1.99;61.63;98312.09;5093270;28;19924;-52
2023/03/03 08:06:24;;;;;;;;;;;;;;;2.25;60.94;98321.31;5095139;28;19932;-53
2023/03/03 08:08:51;;;;;;;;;;;;;;;2.28;60.97;98315.44;5096544;28;19935;-59
2023/03/03 08:11:19;;;;;;;;;;;;;;;2.40;59.92;98310.78;5110647;28;19924;-52
2023/03/03 08:13:47;;;;;;;;;;;;;;;2.33;60.30;98319.00;5094601;28;19924;-53
2023/03/03 08:16:21;;;;;;;;;;;;;;;2.49;59.95;98324.56;5095412;28;19959;-52
2023/03/03 08:18:50;;;;;;;;;;;;;;;2.34;59.89;98315.28;5097530;28;19924;-53
2023/03/03 08:21:20;;;;;;;;;;;;;;;2.50;60.01;98316.25;5088534;28;19924;-53
2023/03/03 08:23:50;;;;;;;;;;;;;;;2.57;60.11;98319.59;5085307;28;19931;-52
2023/03/03 08:26:18;;;;;;;;;;;;;;;2.83;59.41;98317.22;5092183;28;19923;-53
2023/03/03 08:28:46;;;;;;;;;;;;;;;2.93;59.06;98309.28;5112872;28;19924;-52
2023/03/03 08:31:16;;;;;;;;;;;;;;;2.98;58.84;98309.31;5098802;28;19971;-52
2023/03/03 08:34:02;;;;;;;;;;;;;;;2.96;58.53;98319.50;5089715;28;20396;-52
2023/03/03 08:36:33;;;;;;;;;;;;;;;2.94;58.57;98318.94;5105217;28;19976;-53
2023/03/03 08:39:02;;;;;;;;;;;;;;;2.94;58.96;98320.81;5108127;28;19943;-52
2023/03/03 08:41:30;;;;;;;;;;;;;;;3.10;59.53;98323.41;5112909;28;20206;-54
2023/03/03 08:43:58;;;;;;;;;;;;;;;3.15;58.63;98328.84;5106049;28;19927;-52
2023/03/03 08:46:27;;;;;;;;;;;;;;;3.34;57.63;98325.78;5098457;28;19930;-52
2023/03/03 08:48:55;;;;;;;;;;;;;;;3.35;57.60;98316.66;5104369;28;20376;-53
2023/03/03 08:51:25;;;;;;;;;;;;;;;3.56;57.45;98326.50;5106879;28;20368;-54
2023/03/03 08:53:54;;;;;;;;;;;;;;;3.64;57.38;98323.38;5096935;28;20281;-52
2023/03/03 08:56:22;;;;;;;;;;;;;;;3.73;56.05;98326.41;5102839;28;19923;-52
2023/03/03 08:58:49;;;;;;;;;;;;;;;3.74;55.50;98327.22;5085937;28;19924;-52
2023/03/03 09:01:29;;;;;;;;;;;;;;;4.03;55.24;98307.00;5090222;28;20357;-53
2023/03/03 09:03:59;;;;;;;;;;;;;;;4.15;55.28;98310.28;5098917;28;20266;-54
2023/03/03 09:06:28;;;;;;;;;;;;;;;4.35;53.41;98311.47;5103228;28;19924;-52
2023/03/03 09:08:57;;;;;;;;;;;;;;;4.46;53.22;98313.16;5103174;28;19935;-54
2023/03/03 09:11:26;;;;;;;;;;;;;;;4.64;53.61;98303.84;5105978;28;19923;-55
2023/03/03 09:13:55;;;;;;;;;;;;;;;4.70;52.98;98311.66;5077226;28;19931;-54
2023/03/03 09:16:23;;;;;;;;;;;;;;;4.85;53.01;98310.09;5087907;28;19980;-53
2023/03/03 09:18:51;;;;;;;;;;;;;;;4.85;52.57;98304.72;5087433;28;19932;-56
2023/03/03 09:21:22;;;;;;;;;;;;;;;5.04;52.11;98305.84;5105343;28;19932;-53
2023/03/03 09:23:57;;;;;;;;;;;;;;;5.16;51.93;98308.28;5105113;28;19927;-53
2023/03/03 09:26:29;;;;;;;;;;;;;;;5.33;52.03;98300.78;5091548;28;19923;-54
2023/03/03 09:29:09;;;;;;;;;;;;;;;5.44;51.37;98307.00;5103053;28;20352;-53
2023/03/03 09:31:39;;;;;;;;;;;;;;;5.63;50.38;98315.34;5093687;28;19928;-53
2023/03/03 09:34:12;;;;;;;;;;;;;;;5.60;50.52;98311.31;5090102;28;20311;-55
2023/03/03 09:36:41;;;;;;;;;;;;;;;5.83;50.18;98315.38;5081136;28;19924;-56
2023/03/03 09:39:13;;;;;;;;;;;;;;;5.90;49.64;98304.28;5082292;28;19927;-53
2023/03/03 09:41:54;;;;;;;;;;;;;;;6.00;49.76;98310.50;5087059;28;19924;-54
2023/03/03 09:44:36;;;;;;;;;;;;;;;5.97;49.81;98313.78;5098235;28;20335;-53
2023/03/03 09:47:17;;;;;;;;;;;;;;;6.12;49.03;98321.00;5096348;28;21833;-53
2023/03/03 09:49:51;;;;;;;;;;;;;;;6.02;49.42;98321.06;5098183;28;19953;-53
2023/03/03 09:52:22;;;;;;;;;;;;;;;6.07;49.11;98314.81;5091923;28;19932;-52
2023/03/03 09:54:54;;;;;;;;;;;;;;;6.23;49.29;98317.25;5079658;28;19927;-55
2023/03/03 09:57:23;;;;;;;;;;;;;;;6.33;47.51;98315.59;5086243;28;20569;-52
2023/03/03 09:59:57;;;;;;;;;;;;;;;6.43;47.52;98318.25;5099980;28;20383;-52
2023/03/03 10:02:29;;;;;;;;;;;;;;;6.47;46.75;98330.13;5075497;28;19923;-59
2023/03/03 10:05:12;;;;;;;;;;;;;;;6.28;47.83;98329.91;5077273;28;20278;-58
2023/03/03 10:07:43;;;;;;;;;;;;;;;6.50;47.72;98335.00;5077968;28;19998;-53
2023/03/03 10:10:17;;;;;;;;;;;;;;;6.61;48.10;98328.47;5105625;28;20394;-59
2023/03/03 10:12:48;;;;;;;;;;;;;;;6.82;47.57;98329.22;5107317;28;19931;-56
2023/03/03 10:15:22;;;;;;;;;;;;;;;6.85;47.15;98325.94;5083116;28;19924;-56
2023/03/03 10:17:51;;;;;;;;;;;;;;;6.82;47.59;98330.03;5080998;28;19942;-53
2023/03/03 10:20:31;;;;;;;;;;;;;;;6.90;47.20;98330.53;5099317;28;20061;-52
2023/03/03 10:23:19;;;;;;;;;;;;;;;6.75;47.72;98331.38;5097838;28;19955;-53
2023/03/03 10:25:59;;;;;;;;;;;;;;;7.10;46.70;98333.13;5092129;28;19938;-54
2023/03/03 10:28:32;;;;;;;;;;;;;;;7.22;47.15;98330.91;5104366;28;20342;-55
2023/03/03 10:31:03;;;;;;;;;;;;;;;7.23;46.37;98327.09;5096739;28;19928;-52
2023/03/03 10:33:39;;;;;;;;;;;;;;;7.29;46.17;98325.97;5081460;28;19924;-53
2023/03/03 10:36:18;;;;;;;;;;;;;;;7.31;46.00;98323.81;5088031;28;20491;-55
2023/03/03 10:38:47;;;;;;;;;;;;;;;7.48;46.10;98320.75;5102287;28;19931;-53
2023/03/03 10:41:20;;;;;;;;;;;;;;;7.64;46.10;98321.44;5088315;28;20308;-53
2023/03/03 10:43:53;;;;;;;;;;;;;;;7.65;45.59;98319.53;5107114;28;20339;-53
2023/03/03 10:46:38;;;;;;;;;;;;;;;7.60;45.92;98317.69;5104027;28;19924;-56
2023/03/03 10:49:13;;;;;;;;;;;;;;;7.41;45.88;98320.25;5091034;28;20385;-53
2023/03/03 10:51:44;;;;;;;;;;;;;;;7.27;46.17;98325.47;5100395;28;19928;-53
2023/03/03 10:54:16;;;;;;;;;;;;;;;7.49;46.10;98326.94;5097363;28;19964;-53
2023/03/03 10:56:46;;;;;;;;;;;;;;;7.73;45.67;98318.94;5106766;28;19931;-53
2023/03/03 10:59:25;;;;;;;;;;;;;;;7.99;44.69;98323.06;5102245;28;20010;-53
2023/03/03 11:01:54;;;;;;;;;;;;;;;8.13;44.28;98312.34;5098073;28;19974;-54
2023/03/03 11:04:29;;;;;;;;;;;;;;;8.21;43.52;98309.06;5087482;28;20183;-53
2023/03/03 11:06:59;;;;;;;;;;;;;;;8.31;43.50;98314.38;5095767;28;19924;-53
2023/03/03 11:09:33;;;;;;;;;;;;;;;8.31;43.96;98308.13;5088313;28;19928;-54
2023/03/03 11:12:05;;;;;;;;;;;;;;;8.44;43.41;98314.81;5086765;28;20392;-56
2023/03/03 11:14:33;;;;;;;;;;;;;;;8.56;43.50;98309.78;5102502;28;19959;-54
2023/03/03 11:17:03;;;;;;;;;;;;;;;8.80;43.52;98315.22;5098160;28;19992;-56
2023/03/03 11:19:35;;;;;;;;;;;;;;;8.70;43.64;98310.72;5101592;28;19923;-53
2023/03/03 11:22:06;;;;;;;;;;;;;;;8.55;41.80;98300.84;5089171;28;19967;-55
2023/03/03 11:24:37;;;;;;;;;;;;;;;8.62;41.47;98297.78;5100226;28;19924;-53
2023/03/03 11:27:16;;;;;;;;;;;;;;;8.85;41.61;98296.97;5102473;28;20360;-53
2023/03/03 11:29:50;;;;;;;;;;;;;;;8.79;41.39;98308.97;5107969;28;19985;-53
2023/03/03 11:32:21;;;;;;;;;;;;;;;8.99;40.85;98305.19;5102547;28;19924;-53
2023/03/03 11:34:56;;;;;;;;;;;;;;;9.22;42.14;98300.84;5100162;28;19930;-53
2023/03/03 11:37:26;;;;;;;;;;;;;;;9.07;40.55;98299.13;5107734;28;20430;-56
2023/03/03 11:39:54;;;;;;;;;;;;;;;9.16;40.88;98291.97;5082148;28;20322;-54
2023/03/03 11:42:24;;;;;;;;;;;;;;;9.35;40.63;98291.94;5086103;28;19924;-56
2023/03/03 11:44:52;;;;;;;;;;;;;;;9.14;39.98;98291.44;5095908;28;19993;-53
2023/03/03 11:47:22;;;;;;;;;;;;;;;9.21;40.20;98293.78;5093977;28;20308;-55
2023/03/03 11:49:50;;;;;;;;;;;;;;;9.27;39.72;98289.91;5090713;28;19932;-53
2023/03/03 11:52:22;;;;;;;;;;;;;;;9.30;40.27;98285.81;5108809;28;19932;-53
2023/03/03 11:54:51;;;;;;;;;;;;;;;9.51;39.48;98278.97;5097310;28;19938;-58
2023/03/03 11:57:20;;;;;;;;;;;;;;;9.22;39.71;98276.44;5101998;28;19927;-57
2023/03/03 11:59:50;;;;;;;;;;;;;;;9.35;40.04;98280.31;5098692;28;19931;-52
2023/03/03 12:02:28;;;;;;;;;;;;;;;9.47;40.45;98277.13;5089116;28;20377;-53
2023/03/03 12:04:58;;;;;;;;;;;;;;;9.43;42.91;98272.31;5109249;28;19924;-55
2023/03/03 12:07:28;;;;;;;;;;;;;;;9.37;42.95;98268.03;5116262;28;20331;-52
2023/03/03 12:09:59;;;;;;;;;;;;;;;9.27;43.49;98270.09;5107495;28;19924;-53
2023/03/03 12:12:28;;;;;;;;;;;;;;;9.30;43.34;98264.09;5108033;28;19932;-53
2023/03/03 12:15:00;;;;;;;;;;;;;;;9.40;43.47;98267.47;5105726;28;19924;-53
2023/03/03 12:17:46;;;;;;;;;;;;;;;9.24;43.32;98266.09;5099910;28;20373;-52
2023/03/03 12:20:18;;;;;;;;;;;;;;;9.11;43.54;98264.94;5086147;28;19969;-52
2023/03/03 12:22:48;;;;;;;;;;;;;;;9.10;43.70;98259.78;5108696;28;20011;-53
2023/03/03 12:25:33;;;;;;;;;;;;;;;9.23;43.64;98258.25;5104059;28;19939;-54
2023/03/03 12:28:05;;;;;;;;;;;;;;;9.19;43.74;98249.91;5095475;28;19931;-53
2023/03/03 12:30:48;;;;;;;;;;;;;;;9.26;43.42;98236.78;5092468;28;19932;-54
2023/03/03 12:33:21;;;;;;;;;;;;;;;9.15;43.53;98241.53;5088780;28;19928;-54
2023/03/03 12:35:52;;;;;;;;;;;;;;;9.18;43.51;98230.13;5101337;28;19927;-55
2023/03/03 12:38:22;;;;;;;;;;;;;;;9.27;43.69;98240.28;5103616;28;19958;-54
2023/03/03 12:40:52;;;;;;;;;;;;;;;9.41;43.23;98228.41;5100599;28;19934;-54
2023/03/03 12:43:23;;;;;;;;;;;;;;;9.41;43.08;98227.59;5102205;28;20289;-52
2023/03/03 12:45:54;;;;;;;;;;;;;;;9.39;42.92;98230.63;5095217;28;20191;-53
2023/03/03 12:48:24;;;;;;;;;;;;;;;9.50;43.21;98225.81;5108076;28;19932;-53
2023/03/03 12:50:57;;;;;;;;;;;;;;;9.52;42.92;98222.81;5103977;28;19943;-54
2023/03/03 12:53:29;;;;;;;;;;;;;;;9.58;42.49;98227.84;5112112;28;19930;-52
2023/03/03 12:55:59;;;;;;;;;;;;;;;9.40;42.64;98226.78;5096957;28;19932;-55
2023/03/03 12:58:34;;;;;;;;;;;;;;;9.43;42.60;98220.78;5106708;28;19924;-54
2023/03/03 13:01:04;;;;;;;;;;;;;;;9.52;42.04;98222.81;5095707;28;20296;-53
2023/03/03 13:03:36;;;;;;;;;;;;;;;9.45;42.47;98223.19;5087887;28;19928;-54
2023/03/03 13:06:22;;;;;;;;;;;;;;;9.52;42.34;98220.09;5106316;28;19931;-52
2023/03/03 13:08:56;;;;;;;;;;;;;;;9.48;42.10;98219.06;5083569;28;19939;-53
2023/03/03 13:11:40;;;;;;;;;;;;;;;9.53;42.12;98225.22;5101194;28;20014;-54
2023/03/03 13:14:11;;;;;;;;;;;;;;;9.67;41.58;98215.22;5097539;28;19928;-58